createdAt,value
2019-03-29T00:01:04.592Z,90.76
2019-03-29T00:03:39.482Z,90.86
2019-03-29T00:06:14.038Z,90.67
2019-03-29T00:08:50.431Z,90.81
2019-03-29T00:11:25.227Z,91.10
2019-03-29T00:14:01.816Z,90.95
2019-03-29T00:16:36.321Z,91.00
2019-03-29T00:19:10.900Z,90.98
2019-03-29T00:21:45.428Z,91.04
2019-03-29T00:24:19.955Z,91.10
2019-03-29T00:26:54.577Z,91.34
2019-03-29T00:29:30.940Z,91.26
2019-03-29T00:32:06.116Z,91.17
2019-03-29T00:34:41.910Z,91.37
2019-03-29T00:37:17.323Z,91.88
2019-03-29T00:39:52.726Z,92.14
2019-03-29T00:42:28.997Z,92.69
2019-03-29T00:45:05.696Z,92.89
2019-03-29T00:47:43.220Z,92.94
2019-03-29T00:50:17.941Z,93.02
2019-03-29T00:52:52.577Z,92.84
2019-03-29T00:55:28.890Z,93.00
2019-03-29T00:58:03.417Z,93.20
2019-03-29T01:00:38.543Z,92.86
2019-03-29T01:03:13.162Z,92.99
2019-03-29T01:05:47.934Z,93.30
2019-03-29T01:08:22.534Z,93.33
2019-03-29T01:10:57.432Z,93.10
2019-03-29T01:13:31.984Z,92.93
2019-03-29T01:16:06.806Z,93.10
2019-03-29T01:18:41.303Z,93.25
2019-03-29T01:21:15.880Z,93.05
2019-03-29T01:23:50.550Z,92.99
2019-03-29T01:26:25.278Z,92.78
2019-03-29T01:28:59.822Z,92.82
2019-03-29T01:31:34.885Z,92.87
2019-03-29T01:34:09.460Z,92.93
2019-03-29T01:36:44.192Z,92.70
2019-03-29T01:39:18.718Z,92.80
2019-03-29T01:41:53.348Z,92.97
2019-03-29T01:44:28.233Z,92.98
2019-03-29T01:47:03.923Z,92.92
2019-03-29T01:49:38.691Z,92.83
2019-03-29T01:52:13.283Z,92.69
2019-03-29T01:54:47.903Z,92.75
2019-03-29T01:57:25.324Z,92.66
2019-03-29T01:59:59.946Z,92.91
2019-03-29T02:02:34.452Z,92.95
2019-03-29T02:05:09.714Z,92.91
2019-03-29T02:07:44.295Z,92.76
2019-03-29T02:10:22.761Z,92.77
2019-03-29T02:12:58.190Z,92.76
2019-03-29T02:15:32.772Z,92.73
2019-03-29T02:18:07.388Z,92.58
2019-03-29T02:20:42.032Z,92.56
2019-03-29T02:23:16.685Z,92.66
2019-03-29T02:25:51.210Z,92.57
2019-03-29T02:28:27.450Z,92.77
2019-03-29T02:31:02.499Z,92.95
2019-03-29T02:33:38.083Z,92.83
2019-03-29T02:36:13.142Z,92.90
2019-03-29T02:38:55.716Z,92.87
2019-03-29T02:41:23.846Z,92.64
2019-03-29T02:44:00.430Z,93.42
2019-03-29T02:46:36.467Z,93.93
2019-03-29T02:49:12.731Z,94.03
2019-03-29T02:51:47.826Z,93.68
2019-03-29T02:54:22.486Z,93.72
2019-03-29T02:56:58.903Z,93.99
2019-03-29T02:59:33.448Z,93.91
2019-03-29T03:02:08.163Z,93.91
2019-03-29T03:04:43.604Z,94.42
2019-03-29T03:07:18.174Z,94.31
2019-03-29T03:09:54.496Z,94.23
2019-03-29T03:12:29.120Z,94.23
2019-03-29T03:15:03.624Z,94.08
2019-03-29T03:17:39.504Z,93.97
2019-03-29T03:20:15.955Z,93.85
2019-03-29T03:22:50.678Z,93.62
2019-03-29T03:25:27.370Z,93.35
2019-03-29T03:28:01.930Z,93.44
2019-03-29T03:30:36.523Z,93.87
2019-03-29T03:33:11.213Z,94.15
2019-03-29T03:35:48.725Z,93.63
2019-03-29T03:38:23.376Z,93.56
2019-03-29T03:40:59.493Z,93.77
2019-03-29T03:43:34.328Z,93.89
2019-03-29T03:46:10.834Z,93.67
2019-03-29T03:48:46.758Z,93.52
2019-03-29T03:51:21.556Z,93.21
2019-03-29T03:53:57.124Z,93.30
2019-03-29T03:56:33.182Z,93.58
2019-03-29T03:59:08.101Z,93.54
2019-03-29T04:01:42.719Z,93.85
2019-03-29T04:04:17.248Z,93.82
2019-03-29T04:06:51.987Z,93.75
2019-03-29T04:09:26.670Z,93.48
2019-03-29T04:12:01.252Z,93.73
2019-03-29T04:14:37.252Z,93.64
2019-03-29T04:17:13.578Z,93.91
2019-03-29T04:19:48.548Z,94.07
2019-03-29T04:22:24.547Z,94.46
2019-03-29T04:25:00.578Z,94.52
2019-03-29T04:27:35.239Z,94.23
2019-03-29T04:30:10.428Z,94.51
2019-03-29T04:32:45.058Z,94.63
2019-03-29T04:35:19.770Z,94.45
2019-03-29T04:37:54.399Z,94.74
2019-03-29T04:40:28.871Z,95.12
2019-03-29T04:43:04.827Z,95.54
2019-03-29T04:45:39.316Z,95.59
2019-03-29T04:48:14.209Z,95.39
2019-03-29T04:50:48.703Z,95.02
2019-03-29T04:53:23.406Z,95.75
2019-03-29T04:55:58.126Z,95.88
2019-03-29T04:58:32.766Z,96.01
2019-03-29T05:01:07.222Z,96.20
2019-03-29T05:03:41.805Z,96.12
2019-03-29T05:06:16.324Z,96.03
2019-03-29T05:08:53.020Z,96.19
2019-03-29T05:11:27.669Z,96.40
2019-03-29T05:14:02.356Z,96.37
2019-03-29T05:16:38.720Z,95.53
2019-03-29T05:19:13.247Z,95.47
2019-03-29T05:21:47.762Z,95.83
2019-03-29T05:24:22.399Z,96.20
2019-03-29T05:26:57.211Z,96.38
2019-03-29T05:29:32.170Z,96.06
2019-03-29T05:32:06.634Z,96.26
2019-03-29T05:34:41.793Z,96.42
2019-03-29T05:37:16.436Z,95.75
2019-03-29T05:39:52.832Z,95.50
2019-03-29T05:42:27.349Z,95.32
2019-03-29T05:45:01.950Z,95.65
2019-03-29T05:47:36.545Z,95.79
2019-03-29T05:50:11.360Z,95.02
2019-03-29T05:52:45.852Z,94.66
2019-03-29T05:55:32.033Z,94.72
2019-03-29T05:57:57.115Z,94.79
2019-03-29T06:00:31.656Z,94.17
2019-03-29T06:03:06.189Z,93.81
2019-03-29T06:05:41.076Z,93.33
2019-03-29T06:08:15.757Z,93.18
2019-03-29T06:10:50.383Z,92.92
2019-03-29T06:13:26.603Z,92.81
2019-03-29T06:16:01.170Z,92.39
2019-03-29T06:18:35.833Z,92.01
2019-03-29T06:21:11.863Z,91.83
2019-03-29T06:23:46.587Z,91.30
2019-03-29T06:26:21.412Z,90.61
2019-03-29T06:28:56.398Z,89.04
2019-03-29T06:31:31.399Z,88.69
2019-03-29T06:34:05.960Z,88.20
2019-03-29T06:36:42.196Z,87.97
2019-03-29T06:39:21.192Z,87.23
2019-03-29T06:41:57.126Z,86.47
2019-03-29T06:44:31.893Z,86.40
2019-03-29T06:47:08.304Z,85.22
2019-03-29T06:49:42.809Z,80.77
2019-03-29T06:52:17.299Z,80.38
2019-03-29T06:54:53.713Z,81.06
2019-03-29T06:57:30.343Z,81.06
2019-03-29T07:00:05.220Z,79.81
2019-03-29T07:02:41.605Z,81.37
2019-03-29T07:05:16.378Z,82.93
2019-03-29T07:07:51.324Z,82.45
2019-03-29T07:10:56.461Z,82.12
2019-03-29T07:13:36.323Z,80.63
2019-03-29T07:16:12.566Z,78.61
2019-03-29T07:18:49.002Z,78.07
2019-03-29T07:21:23.652Z,75.42
2019-03-29T07:24:00.106Z,73.07
2019-03-29T07:26:36.544Z,72.14
2019-03-29T07:29:11.097Z,68.40
2019-03-29T07:31:45.823Z,69.45
2019-03-29T07:34:20.389Z,66.50
2019-03-29T07:36:55.026Z,64.40
2019-03-29T07:39:29.605Z,65.56
2019-03-29T07:42:04.683Z,65.05
2019-03-29T07:44:39.513Z,61.53
2019-03-29T07:47:14.094Z,58.51
2019-03-29T07:49:48.713Z,54.29
2019-03-29T07:52:23.565Z,51.17
2019-03-29T07:54:58.246Z,50.39
2019-03-29T07:57:34.852Z,49.74
2019-03-29T08:00:11.746Z,48.00
2019-03-29T08:02:47.301Z,45.95
2019-03-29T08:05:23.640Z,46.44
2019-03-29T08:07:59.886Z,45.42
2019-03-29T08:10:36.272Z,44.89
2019-03-29T08:13:12.394Z,43.14
2019-03-29T08:15:48.397Z,43.15
2019-03-29T08:18:22.957Z,42.17
2019-03-29T08:20:57.691Z,43.61
2019-03-29T08:23:32.220Z,42.19
2019-03-29T08:26:09.280Z,43.41
2019-03-29T08:28:43.946Z,43.27
2019-03-29T08:31:18.808Z,43.11
2019-03-29T08:33:53.580Z,42.71
2019-03-29T08:36:28.261Z,43.30
2019-03-29T08:39:02.729Z,44.95
2019-03-29T08:41:37.199Z,44.44
2019-03-29T08:44:12.050Z,46.19
2019-03-29T08:46:48.476Z,46.83
2019-03-29T08:49:24.752Z,44.98
2019-03-29T08:51:59.383Z,44.89
2019-03-29T08:54:36.195Z,44.54
2019-03-29T08:57:11.015Z,45.30
2019-03-29T08:59:47.134Z,46.50
2019-03-29T09:02:25.092Z,44.24
2019-03-29T09:04:59.585Z,44.80
2019-03-29T09:07:44.424Z,46.89
2019-03-29T09:10:26.116Z,47.22
2019-03-29T09:13:04.085Z,47.12
2019-03-29T09:15:36.884Z,43.81
2019-03-29T09:18:11.316Z,44.04
2019-03-29T09:20:46.010Z,46.70
2019-03-29T09:23:20.856Z,45.13
2019-03-29T09:25:55.637Z,45.58
2019-03-29T09:28:32.751Z,45.81
2019-03-29T09:31:08.167Z,43.39
2019-03-29T09:33:42.903Z,43.04
2019-03-29T09:36:17.425Z,44.44
2019-03-29T09:38:52.168Z,44.68
2019-03-29T09:41:26.955Z,43.60
2019-03-29T09:44:02.169Z,41.69
2019-03-29T09:46:36.939Z,44.51
2019-03-29T09:49:11.349Z,44.04
2019-03-29T09:51:47.555Z,44.39
2019-03-29T09:54:21.958Z,42.80
2019-03-29T09:56:57.071Z,43.53
2019-03-29T09:59:31.577Z,43.90
2019-03-29T10:02:06.200Z,42.99
2019-03-29T10:04:40.990Z,44.76
2019-03-29T10:07:15.832Z,46.32
2019-03-29T10:09:52.290Z,44.84
2019-03-29T10:12:26.908Z,45.65
2019-03-29T10:15:01.449Z,44.02
2019-03-29T10:17:37.704Z,42.68
2019-03-29T10:20:12.998Z,43.63
2019-03-29T10:22:48.013Z,44.37
2019-03-29T10:25:22.516Z,45.40
2019-03-29T10:27:57.136Z,44.84
2019-03-29T10:30:46.651Z,45.01
2019-03-29T10:33:20.960Z,43.70
2019-03-29T10:35:56.063Z,44.71
2019-03-29T10:38:30.932Z,44.55
2019-03-29T10:41:05.363Z,44.39
2019-03-29T10:43:39.841Z,46.46
2019-03-29T10:46:14.878Z,46.44
2019-03-29T10:48:49.762Z,45.17
2019-03-29T10:51:25.852Z,44.11
2019-03-29T10:54:00.263Z,42.97
2019-03-29T10:56:35.019Z,43.10
2019-03-29T10:59:09.407Z,42.70
2019-03-29T11:01:44.174Z,43.42
2019-03-29T11:04:18.672Z,45.65
2019-03-29T11:06:55.261Z,44.96
2019-03-29T11:09:30.064Z,45.63
2019-03-29T11:12:04.544Z,45.00
2019-03-29T11:14:39.101Z,43.67
2019-03-29T11:17:13.669Z,44.17
2019-03-29T11:19:48.277Z,43.99
2019-03-29T11:22:22.889Z,45.31
2019-03-29T11:24:57.309Z,43.93
2019-03-29T11:27:31.746Z,44.34
2019-03-29T11:30:06.822Z,44.37
2019-03-29T11:32:41.537Z,44.35
2019-03-29T11:35:16.150Z,43.70
2019-03-29T11:37:51.939Z,45.70
2019-03-29T11:40:28.280Z,47.95
2019-03-29T11:43:04.843Z,46.71
2019-03-29T11:45:40.329Z,45.75
2019-03-29T11:48:15.061Z,45.85
2019-03-29T11:50:49.692Z,45.16
2019-03-29T11:53:25.516Z,43.53
2019-03-29T11:56:01.685Z,44.98
2019-03-29T11:58:36.388Z,44.46
2019-03-29T12:01:11.148Z,43.67
2019-03-29T12:03:45.657Z,43.59
2019-03-29T12:06:20.183Z,43.46
2019-03-29T12:08:57.113Z,43.55
2019-03-29T12:11:31.144Z,42.75
2019-03-29T12:14:05.973Z,43.19
2019-03-29T12:16:41.013Z,43.12
2019-03-29T12:19:17.488Z,42.69
2019-03-29T12:21:52.528Z,43.18
2019-03-29T12:24:29.018Z,44.03
2019-03-29T12:27:04.082Z,43.75
2019-03-29T12:29:38.854Z,43.51
2019-03-29T12:32:10.836Z,44.73
2019-03-29T12:34:45.668Z,44.02
2019-03-29T12:37:21.085Z,43.49
2019-03-29T12:39:55.477Z,43.88
2019-03-29T12:42:29.975Z,43.43
2019-03-29T12:45:05.011Z,44.36
2019-03-29T12:47:41.826Z,43.64
2019-03-29T12:50:17.052Z,45.03
2019-03-29T12:52:51.639Z,44.11
2019-03-29T12:55:26.717Z,44.70
2019-03-29T12:58:01.357Z,44.40
2019-03-29T13:00:36.168Z,44.09
2019-03-29T13:03:11.175Z,44.38
2019-03-29T13:05:45.619Z,44.41
2019-03-29T13:08:20.564Z,43.35
2019-03-29T13:10:55.321Z,42.77
2019-03-29T13:13:30.958Z,43.60
2019-03-29T13:16:05.369Z,44.17
2019-03-29T13:18:42.017Z,44.18
2019-03-29T13:21:18.338Z,43.95
2019-03-29T13:23:52.888Z,43.39
2019-03-29T13:26:27.538Z,44.12
2019-03-29T13:29:02.310Z,45.05
2019-03-29T13:31:36.901Z,46.10
2019-03-29T13:34:11.858Z,45.95
2019-03-29T13:36:48.675Z,45.28
2019-03-29T13:39:23.224Z,43.84
2019-03-29T13:41:59.297Z,44.57
2019-03-29T13:44:34.087Z,44.64
2019-03-29T13:47:08.485Z,44.13
2019-03-29T13:49:43.232Z,44.40
2019-03-29T13:52:18.129Z,44.30
2019-03-29T13:54:53.241Z,44.56
2019-03-29T13:57:27.684Z,44.94
2019-03-29T14:00:02.116Z,44.87
2019-03-29T14:02:37.036Z,44.28
2019-03-29T14:05:12.374Z,44.40
2019-03-29T14:07:48.181Z,44.17
2019-03-29T14:10:22.714Z,43.69
2019-03-29T14:12:59.309Z,43.79
2019-03-29T14:15:33.908Z,43.71
2019-03-29T14:18:09.252Z,44.55
2019-03-29T14:20:44.133Z,45.11
2019-03-29T14:23:18.763Z,44.19
2019-03-29T14:25:53.234Z,44.32
2019-03-29T14:28:27.702Z,45.69
2019-03-29T14:31:02.172Z,44.96
2019-03-29T14:33:36.653Z,44.44
2019-03-29T14:36:11.455Z,44.69
2019-03-29T14:38:46.014Z,44.40
2019-03-29T14:41:20.481Z,44.71
2019-03-29T14:43:55.151Z,44.81
2019-03-29T14:46:31.404Z,44.66
2019-03-29T14:49:08.050Z,45.04
2019-03-29T14:51:42.442Z,43.69
2019-03-29T14:54:16.877Z,45.46
2019-03-29T14:56:51.599Z,44.68
2019-03-29T14:59:26.041Z,44.77
2019-03-29T15:02:00.478Z,43.67
2019-03-29T15:04:34.961Z,44.36
2019-03-29T15:07:09.466Z,44.97
2019-03-29T15:09:44.028Z,45.18
2019-03-29T15:12:18.538Z,45.06
2019-03-29T15:15:05.599Z,44.92
2019-03-29T15:17:29.076Z,45.22
2019-03-29T15:20:07.505Z,45.58
2019-03-29T15:22:41.919Z,45.68
2019-03-29T15:25:16.341Z,44.84
2019-03-29T15:27:50.755Z,44.69
2019-03-29T15:30:25.169Z,45.00
2019-03-29T15:32:59.649Z,45.07
2019-03-29T15:35:34.106Z,45.70
2019-03-29T15:38:08.821Z,45.86
2019-03-29T15:40:43.250Z,46.24
2019-03-29T15:43:18.040Z,45.99
2019-03-29T15:45:52.847Z,45.58
2019-03-29T15:48:27.940Z,44.64
2019-03-29T15:51:02.461Z,45.97
2019-03-29T15:53:37.090Z,46.60
2019-03-29T15:56:11.810Z,46.94
2019-03-29T15:58:46.275Z,47.28
2019-03-29T16:01:20.661Z,47.28
2019-03-29T16:03:55.071Z,46.90
2019-03-29T16:06:29.535Z,46.57
2019-03-29T16:09:04.750Z,46.33
2019-03-29T16:11:39.183Z,46.40
2019-03-29T16:14:13.697Z,46.45
2019-03-29T16:16:48.148Z,46.12
2019-03-29T16:19:22.535Z,47.04
2019-03-29T16:21:57.072Z,47.43
2019-03-29T16:24:31.466Z,47.86
2019-03-29T16:27:06.282Z,47.84
2019-03-29T16:29:42.214Z,48.37
2019-03-29T16:32:16.643Z,48.55
2019-03-29T16:34:51.123Z,48.94
2019-03-29T16:37:26.051Z,49.11
2019-03-29T16:40:00.523Z,49.13
2019-03-29T16:42:35.024Z,49.25
2019-03-29T16:45:09.653Z,49.49
2019-03-29T16:47:44.154Z,50.22
2019-03-29T16:50:18.543Z,50.08
2019-03-29T16:52:53.025Z,50.40
2019-03-29T16:55:32.129Z,50.62
2019-03-29T16:58:06.757Z,51.25
2019-03-29T17:00:41.274Z,51.50
2019-03-29T17:03:15.732Z,51.91
2019-03-29T17:05:50.822Z,52.47
2019-03-29T17:08:25.301Z,52.94
2019-03-29T17:10:59.784Z,53.26
2019-03-29T17:13:34.227Z,53.98
2019-03-29T17:16:08.831Z,54.09
2019-03-29T17:18:43.324Z,55.02
2019-03-29T17:21:17.787Z,56.38
2019-03-29T17:23:52.858Z,56.09
2019-03-29T17:27:38.616Z,55.88
2019-03-29T17:30:15.685Z,56.47
2019-03-29T17:32:50.555Z,56.73
2019-03-29T17:35:25.036Z,57.12
2019-03-29T17:37:59.438Z,57.40
2019-03-29T17:40:35.710Z,57.58
2019-03-29T17:43:10.209Z,58.40
2019-03-29T17:45:44.727Z,59.04
2019-03-29T17:48:19.294Z,59.29
2019-03-29T17:50:53.696Z,60.23
2019-03-29T17:53:28.487Z,59.72
2019-03-29T17:56:03.469Z,60.12
2019-03-29T17:58:38.297Z,60.81
2019-03-29T18:01:13.297Z,61.00
2019-03-29T18:03:47.781Z,61.38
2019-03-29T18:06:22.228Z,61.09
2019-03-29T18:08:56.742Z,61.23
2019-03-29T18:11:31.313Z,61.35
2019-03-29T18:14:06.136Z,61.72
2019-03-29T18:16:40.676Z,62.09
2019-03-29T18:19:15.476Z,62.58
2019-03-29T18:21:49.955Z,64.14
2019-03-29T18:24:24.362Z,65.04
2019-03-29T18:26:58.852Z,65.60
2019-03-29T18:29:33.590Z,65.64
2019-03-29T18:32:08.432Z,65.99
2019-03-29T18:34:43.094Z,65.45
2019-03-29T18:37:17.644Z,65.28
2019-03-29T18:39:54.980Z,65.96
2019-03-29T18:42:28.720Z,67.08
2019-03-29T18:45:03.649Z,68.33
2019-03-29T18:47:38.385Z,68.14
2019-03-29T18:50:13.103Z,67.83
2019-03-29T18:52:47.641Z,68.52
2019-03-29T18:55:22.733Z,69.17
2019-03-29T18:57:57.601Z,69.76
2019-03-29T19:00:34.127Z,70.10
2019-03-29T19:03:11.994Z,70.05
2019-03-29T19:05:46.842Z,70.38
2019-03-29T19:08:21.483Z,71.07
2019-03-29T19:10:56.565Z,71.96
2019-03-29T19:13:31.211Z,71.85
2019-03-29T19:16:05.977Z,71.30
2019-03-29T19:18:42.461Z,71.57
2019-03-29T19:21:17.494Z,71.45
2019-03-29T19:23:52.314Z,71.72
2019-03-29T19:26:28.781Z,72.04
2019-03-29T19:29:03.709Z,72.17
2019-03-29T19:31:38.200Z,72.38
2019-03-29T19:34:13.660Z,72.47
2019-03-29T19:36:48.227Z,72.65
2019-03-29T19:39:23.589Z,73.57
2019-03-29T19:41:58.294Z,73.71
2019-03-29T19:44:33.985Z,74.19
2019-03-29T19:47:13.681Z,74.03
2019-03-29T19:49:45.027Z,73.94
2019-03-29T19:52:19.459Z,74.24
2019-03-29T19:54:53.921Z,74.06
2019-03-29T19:57:28.954Z,73.56
2019-03-29T20:00:06.103Z,73.61
2019-03-29T20:02:39.857Z,73.85
2019-03-29T20:05:29.630Z,74.29
2019-03-29T20:08:05.593Z,74.29
2019-03-29T20:10:40.038Z,74.97
2019-03-29T20:13:14.543Z,74.77
2019-03-29T20:15:49.346Z,74.76
2019-03-29T20:18:25.737Z,74.80
2019-03-29T20:21:01.861Z,75.37
2019-03-29T20:23:36.260Z,75.71
2019-03-29T20:26:10.739Z,75.50
2019-03-29T20:28:45.185Z,76.05
2019-03-29T20:31:19.974Z,76.22
2019-03-29T20:33:54.509Z,76.50
2019-03-29T20:36:28.921Z,77.26
2019-03-29T20:39:03.758Z,77.71
2019-03-29T20:41:38.556Z,78.41
2019-03-29T20:44:15.256Z,79.01
2019-03-29T20:46:49.975Z,80.20
2019-03-29T20:49:24.415Z,80.84
2019-03-29T20:51:59.194Z,80.98
2019-03-29T20:54:33.916Z,81.27
2019-03-29T20:57:08.655Z,81.78
2019-03-29T20:59:43.907Z,81.96
2019-03-29T21:02:18.353Z,82.17
2019-03-29T21:04:53.099Z,82.55
2019-03-29T21:07:27.599Z,82.06
2019-03-29T21:10:02.092Z,82.47
2019-03-29T21:12:38.176Z,82.92
2019-03-29T21:15:13.104Z,83.07
2019-03-29T21:17:56.445Z,83.13
2019-03-29T21:20:23.948Z,83.50
2019-03-29T21:22:58.745Z,83.87
2019-03-29T21:25:33.147Z,84.44
2019-03-29T21:28:07.685Z,84.77
2019-03-29T21:30:42.359Z,85.17
2019-03-29T21:33:17.171Z,85.23
2019-03-29T21:35:51.860Z,85.12
2019-03-29T21:38:26.345Z,84.96
2019-03-29T21:41:00.725Z,85.04
2019-03-29T21:43:35.240Z,85.07
2019-03-29T21:46:10.031Z,85.45
2019-03-29T21:48:44.502Z,85.33
2019-03-29T21:51:18.970Z,85.77
2019-03-29T21:53:54.546Z,85.95
2019-03-29T21:56:29.118Z,85.91
2019-03-29T21:59:03.552Z,86.36
2019-03-29T22:01:40.862Z,86.38
2019-03-29T22:04:15.850Z,86.66
2019-03-29T22:06:50.552Z,86.75
2019-03-29T22:09:36.393Z,86.77
2019-03-29T22:12:01.077Z,86.24
2019-03-29T22:14:35.483Z,86.22
2019-03-29T22:17:10.329Z,85.97
2019-03-29T22:19:45.022Z,85.99
2019-03-29T22:22:19.969Z,86.00
2019-03-29T22:24:54.457Z,86.03
2019-03-29T22:27:28.838Z,86.31
2019-03-29T22:30:03.403Z,86.44
2019-03-29T22:32:38.682Z,86.44
2019-03-29T22:35:13.090Z,86.62
2019-03-29T22:37:47.576Z,86.25
2019-03-29T22:40:21.953Z,86.12
2019-03-29T22:42:56.649Z,85.92
2019-03-29T22:45:31.614Z,86.25
2019-03-29T22:48:06.717Z,86.46
2019-03-29T22:50:41.070Z,86.76
2019-03-29T22:53:15.652Z,86.76
2019-03-29T22:55:50.046Z,86.78
2019-03-29T22:58:24.454Z,86.73
2019-03-29T23:01:00.763Z,87.24
2019-03-29T23:03:35.155Z,87.26
2019-03-29T23:06:09.549Z,87.51
2019-03-29T23:08:43.907Z,87.44
2019-03-29T23:11:18.323Z,87.57
2019-03-29T23:13:52.710Z,87.56
2019-03-29T23:16:30.261Z,87.42
2019-03-29T23:19:06.721Z,87.36
2019-03-29T23:21:39.504Z,87.29
2019-03-29T23:24:13.916Z,87.31
2019-03-29T23:26:48.565Z,87.22
2019-03-29T23:29:22.982Z,87.38
2019-03-29T23:31:57.620Z,87.55
2019-03-29T23:34:32.309Z,87.60
2019-03-29T23:37:06.657Z,87.51
2019-03-29T23:39:41.252Z,87.86
2019-03-29T23:42:16.290Z,87.87
2019-03-29T23:44:51.122Z,87.78
2019-03-29T23:47:25.458Z,88.05
2019-03-29T23:50:00.291Z,88.42
2019-03-29T23:52:34.688Z,88.38
2019-03-29T23:55:09.133Z,88.48
2019-03-29T23:57:43.580Z,88.70
